createdAt,value
2022-10-09T00:01:44.485Z,1.52
2022-10-09T00:04:13.302Z,0.98
2022-10-09T00:06:41.961Z,2.30
2022-10-09T00:09:10.732Z,1.27
2022-10-09T00:11:39.435Z,1.33
2022-10-09T00:14:09.587Z,0.90
2022-10-09T00:16:38.548Z,1.23
2022-10-09T00:19:07.294Z,1.85
2022-10-09T00:21:36.005Z,1.27
2022-10-09T00:24:06.354Z,2.67
2022-10-09T00:26:35.285Z,2.95
2022-10-09T00:29:04.198Z,1.88
2022-10-09T00:31:34.233Z,1.77
2022-10-09T00:34:02.901Z,2.72
2022-10-09T00:36:31.617Z,1.65
2022-10-09T00:39:00.433Z,2.22
2022-10-09T00:41:34.018Z,2.40
2022-10-09T00:44:04.746Z,2.47
2022-10-09T00:46:46.710Z,2.10
2022-10-09T00:49:23.813Z,2.03
2022-10-09T00:51:53.333Z,2.35
2022-10-09T00:54:25.852Z,2.20
2022-10-09T00:56:55.687Z,2.65
2022-10-09T00:59:25.168Z,1.48
2022-10-09T01:01:55.999Z,1.23
2022-10-09T01:04:24.747Z,1.13
2022-10-09T01:07:08.306Z,2.10
2022-10-09T01:09:43.737Z,1.25
2022-10-09T01:12:21.247Z,1.23
2022-10-09T01:14:58.740Z,1.88
2022-10-09T01:17:35.969Z,2.28
2022-10-09T01:20:31.850Z,2.60
2022-10-09T01:23:15.014Z,1.52
2022-10-09T01:25:55.095Z,1.67
2022-10-09T01:28:29.228Z,3.28
2022-10-09T01:31:01.244Z,2.08
2022-10-09T01:33:31.875Z,1.67
2022-10-09T01:36:02.245Z,1.35
2022-10-09T01:38:31.969Z,1.73
2022-10-09T01:41:00.837Z,1.23
2022-10-09T01:43:31.045Z,1.80
2022-10-09T01:46:24.887Z,1.70
2022-10-09T01:49:04.129Z,2.17
2022-10-09T01:51:41.075Z,1.13
2022-10-09T01:54:12.095Z,2.55
2022-10-09T01:56:41.783Z,1.85
2022-10-09T01:59:16.094Z,3.20
2022-10-09T02:01:47.767Z,2.55
2022-10-09T02:04:19.943Z,3.45
2022-10-09T02:06:49.429Z,4.05
2022-10-09T02:09:19.366Z,4.38
2022-10-09T02:11:56.022Z,2.45
2022-10-09T02:14:26.304Z,1.83
2022-10-09T02:17:02.505Z,2.70
2022-10-09T02:19:37.211Z,5.22
2022-10-09T02:22:12.052Z,5.00
2022-10-09T02:24:42.492Z,5.35
2022-10-09T02:27:15.046Z,2.70
2022-10-09T02:29:49.751Z,3.65
2022-10-09T02:32:18.883Z,3.67
2022-10-09T02:34:47.818Z,1.85
2022-10-09T02:37:16.743Z,2.90
2022-10-09T02:39:46.991Z,2.45
2022-10-09T02:42:15.807Z,3.50
2022-10-09T02:44:45.820Z,1.95
2022-10-09T02:47:14.607Z,4.30
2022-10-09T02:49:43.771Z,1.95
2022-10-09T02:52:14.144Z,1.67
2022-10-09T02:54:42.820Z,1.88
2022-10-09T02:57:11.474Z,3.35
2022-10-09T02:59:40.257Z,1.17
2022-10-09T03:02:13.751Z,4.18
2022-10-09T03:04:42.716Z,2.65
2022-10-09T03:07:11.364Z,1.95
2022-10-09T03:09:40.346Z,2.53
2022-10-09T03:12:10.242Z,1.08
2022-10-09T03:14:38.968Z,2.47
2022-10-09T03:17:07.778Z,1.85
2022-10-09T03:19:37.858Z,2.20
2022-10-09T03:22:06.645Z,1.02
2022-10-09T03:24:35.577Z,1.40
2022-10-09T03:27:04.448Z,3.00
2022-10-09T03:29:33.199Z,1.77
2022-10-09T03:32:02.042Z,2.13
2022-10-09T03:34:33.000Z,1.70
2022-10-09T03:37:03.402Z,2.08
2022-10-09T03:39:33.432Z,1.70
2022-10-09T03:42:02.108Z,3.58
2022-10-09T03:44:31.119Z,3.45
2022-10-09T03:46:59.967Z,4.53
2022-10-09T03:49:28.771Z,1.98
2022-10-09T03:51:57.552Z,1.98
2022-10-09T03:54:28.470Z,3.03
2022-10-09T03:56:57.438Z,1.98
2022-10-09T03:59:27.981Z,1.58
2022-10-09T04:01:56.799Z,2.22
2022-10-09T04:04:25.656Z,1.40
2022-10-09T04:06:54.621Z,2.70
2022-10-09T04:09:23.419Z,1.10
2022-10-09T04:11:54.687Z,1.23
2022-10-09T04:14:23.320Z,2.22
2022-10-09T04:16:54.437Z,2.08
2022-10-09T04:19:23.251Z,2.05
2022-10-09T04:21:52.107Z,1.27
2022-10-09T04:24:20.831Z,1.38
2022-10-09T04:26:50.909Z,1.80
2022-10-09T04:29:21.171Z,1.48
2022-10-09T04:31:52.992Z,1.75
2022-10-09T04:34:21.823Z,2.90
2022-10-09T04:36:50.506Z,2.80
2022-10-09T04:39:19.355Z,1.70
2022-10-09T04:41:48.185Z,1.40
2022-10-09T04:44:17.027Z,1.23
2022-10-09T04:46:47.169Z,1.63
2022-10-09T04:49:16.229Z,2.10
2022-10-09T04:51:45.491Z,0.90
2022-10-09T04:54:14.415Z,1.10
2022-10-09T04:56:43.144Z,1.00
2022-10-09T04:59:12.736Z,2.38
2022-10-09T05:01:43.785Z,1.42
2022-10-09T05:04:13.993Z,1.73
2022-10-09T05:06:42.701Z,1.00
2022-10-09T05:09:11.454Z,1.08
2022-10-09T05:11:42.701Z,1.77
2022-10-09T05:14:12.813Z,1.40
2022-10-09T05:17:08.322Z,1.55
2022-10-09T05:19:32.535Z,1.35
2022-10-09T05:22:01.759Z,0.98
2022-10-09T05:24:30.817Z,1.73
2022-10-09T05:26:59.606Z,1.02
2022-10-09T05:29:28.403Z,1.67
2022-10-09T05:31:57.141Z,1.73
2022-10-09T05:34:28.023Z,1.08
2022-10-09T05:36:58.370Z,2.38
2022-10-09T05:39:27.223Z,1.73
2022-10-09T05:41:56.123Z,2.38
2022-10-09T05:44:25.127Z,2.03
2022-10-09T05:46:53.926Z,1.90
2022-10-09T05:49:22.777Z,1.42
2022-10-09T05:51:51.502Z,1.23
2022-10-09T05:54:21.621Z,0.90
2022-10-09T05:56:50.402Z,1.23
2022-10-09T05:59:20.408Z,1.77
2022-10-09T06:01:50.666Z,1.13
2022-10-09T06:04:21.424Z,1.30
2022-10-09T06:06:51.000Z,2.28
2022-10-09T06:09:23.449Z,1.58
2022-10-09T06:11:55.143Z,1.85
2022-10-09T06:14:24.615Z,2.08
2022-10-09T06:16:53.523Z,1.58
2022-10-09T06:19:23.098Z,1.73
2022-10-09T06:21:52.269Z,1.77
2022-10-09T06:24:28.856Z,1.20
2022-10-09T06:26:58.753Z,2.00
2022-10-09T06:29:30.247Z,1.77
2022-10-09T06:31:58.989Z,1.25
2022-10-09T06:34:28.059Z,1.95
2022-10-09T06:36:56.903Z,1.27
2022-10-09T06:39:27.355Z,3.10
2022-10-09T06:41:56.084Z,3.35
2022-10-09T06:44:32.013Z,4.40
2022-10-09T06:47:00.875Z,2.78
2022-10-09T06:49:29.886Z,3.17
2022-10-09T06:51:58.736Z,2.58
2022-10-09T06:54:29.211Z,4.28
2022-10-09T06:56:57.966Z,2.83
2022-10-09T06:59:26.828Z,2.95
2022-10-09T07:01:57.082Z,4.10
2022-10-09T07:04:26.003Z,2.75
2022-10-09T07:06:55.052Z,2.67
2022-10-09T07:09:23.753Z,3.10
2022-10-09T07:11:53.905Z,1.20
2022-10-09T07:14:22.649Z,1.05
2022-10-09T07:16:53.452Z,1.75
2022-10-09T07:19:22.228Z,1.85
2022-10-09T07:21:51.541Z,1.27
2022-10-09T07:24:21.424Z,1.58
2022-10-09T07:26:50.243Z,1.25
2022-10-09T07:29:20.734Z,1.15
2022-10-09T07:31:49.991Z,1.23
2022-10-09T07:34:18.904Z,2.00
2022-10-09T07:36:47.690Z,0.70
2022-10-09T07:39:19.074Z,3.22
2022-10-09T07:41:48.890Z,0.77
2022-10-09T07:44:19.165Z,1.20
2022-10-09T07:46:47.917Z,1.60
2022-10-09T07:49:16.875Z,3.08
2022-10-09T07:51:45.609Z,0.65
2022-10-09T07:54:14.470Z,1.67
2022-10-09T07:56:43.198Z,2.67
2022-10-09T07:59:17.762Z,1.65
2022-10-09T08:01:47.870Z,1.40
2022-10-09T08:04:17.148Z,1.63
2022-10-09T08:06:45.807Z,0.82
2022-10-09T08:09:14.514Z,2.95
2022-10-09T08:11:43.242Z,2.03
2022-10-09T08:14:18.233Z,2.13
2022-10-09T08:16:49.813Z,1.42
2022-10-09T08:19:18.539Z,2.70
2022-10-09T08:21:47.324Z,1.30
2022-10-09T08:24:16.007Z,0.52
2022-10-09T08:26:45.487Z,1.15
2022-10-09T08:29:16.614Z,2.50
2022-10-09T08:31:46.386Z,0.60
2022-10-09T08:34:16.528Z,0.98
2022-10-09T08:36:45.377Z,0.57
2022-10-09T08:39:14.659Z,1.77
2022-10-09T08:41:46.179Z,0.88
2022-10-09T08:44:19.863Z,1.42
2022-10-09T08:47:03.932Z,0.63
2022-10-09T08:49:42.849Z,0.65
2022-10-09T08:52:25.763Z,0.40
2022-10-09T08:54:57.226Z,0.50
2022-10-09T08:57:30.963Z,1.33
2022-10-09T08:59:59.679Z,0.55
2022-10-09T09:02:42.029Z,0.60
2022-10-09T09:05:24.089Z,0.75
2022-10-09T09:08:00.512Z,0.70
2022-10-09T09:10:39.503Z,0.93
2022-10-09T09:13:23.553Z,1.23
2022-10-09T09:15:56.255Z,0.85
2022-10-09T09:18:41.968Z,0.70
2022-10-09T09:21:23.838Z,0.60
2022-10-09T09:23:53.029Z,1.23
2022-10-09T09:26:23.205Z,0.55
2022-10-09T09:28:57.016Z,0.77
2022-10-09T09:31:31.565Z,0.70
2022-10-09T09:34:07.039Z,0.40
2022-10-09T09:36:41.574Z,0.65
2022-10-09T09:39:55.664Z,0.85
2022-10-09T09:42:04.017Z,1.00
2022-10-09T09:44:34.588Z,1.17
2022-10-09T09:47:03.810Z,0.68
2022-10-09T09:49:32.446Z,0.50
2022-10-09T09:52:03.366Z,0.47
2022-10-09T09:54:32.233Z,1.23
2022-10-09T09:57:21.875Z,0.73
2022-10-09T09:59:50.881Z,0.40
2022-10-09T10:02:21.886Z,0.45
2022-10-09T10:04:52.832Z,0.40
2022-10-09T10:07:36.184Z,0.70
2022-10-09T10:10:07.341Z,0.40
2022-10-09T10:12:42.221Z,0.60
2022-10-09T10:15:22.433Z,0.50
2022-10-09T10:17:58.908Z,0.57
2022-10-09T10:20:28.284Z,0.52
2022-10-09T10:23:00.357Z,1.85
2022-10-09T10:25:33.066Z,0.40
2022-10-09T10:28:07.104Z,0.65
2022-10-09T10:30:39.763Z,0.65
2022-10-09T10:33:19.660Z,1.77
2022-10-09T10:35:52.820Z,0.68
2022-10-09T10:38:33.679Z,0.47
2022-10-09T10:41:12.482Z,0.60
2022-10-09T10:43:44.576Z,0.57
2022-10-09T10:46:20.232Z,0.50
2022-10-09T10:48:50.153Z,0.57
2022-10-09T10:51:51.945Z,0.43
2022-10-09T10:54:39.412Z,0.30
2022-10-09T10:57:16.936Z,0.38
2022-10-09T10:59:56.796Z,0.75
2022-10-09T11:02:59.247Z,0.68
2022-10-09T11:05:37.722Z,0.30
2022-10-09T11:08:48.090Z,0.45
2022-10-09T11:11:26.754Z,0.63
2022-10-09T11:14:09.492Z,0.68
2022-10-09T11:16:50.465Z,0.25
2022-10-09T11:19:40.547Z,0.28
2022-10-09T11:22:24.323Z,0.47
2022-10-09T11:25:22.886Z,0.45
2022-10-09T11:27:59.163Z,0.40
2022-10-09T11:30:29.097Z,0.40
2022-10-09T11:33:02.378Z,0.98
2022-10-09T11:35:36.127Z,0.30
2022-10-09T11:38:08.619Z,0.30
2022-10-09T11:40:42.793Z,0.30
2022-10-09T11:43:22.249Z,0.38
2022-10-09T11:45:57.001Z,0.55
2022-10-09T11:48:35.530Z,0.30
2022-10-09T11:51:09.803Z,1.08
2022-10-09T11:53:40.208Z,0.77
2022-10-09T11:56:20.318Z,0.22
2022-10-09T11:58:59.795Z,1.25
2022-10-09T12:01:33.226Z,0.60
2022-10-09T12:04:05.623Z,0.63
2022-10-09T12:06:46.221Z,0.50
2022-10-09T12:09:23.204Z,0.30
2022-10-09T12:12:01.778Z,0.73
2022-10-09T12:14:32.425Z,0.50
2022-10-09T12:17:01.994Z,0.60
2022-10-09T12:19:37.126Z,0.50
2022-10-09T12:22:08.234Z,0.35
2022-10-09T12:24:40.667Z,0.35
2022-10-09T12:27:10.168Z,0.55
2022-10-09T12:29:46.489Z,0.77
2022-10-09T12:32:19.569Z,0.30
2022-10-09T12:34:50.773Z,0.30
2022-10-09T12:37:20.867Z,0.38
2022-10-09T12:39:51.141Z,0.40
2022-10-09T12:42:23.428Z,0.32
2022-10-09T12:44:56.575Z,0.38
2022-10-09T12:47:27.781Z,1.58
2022-10-09T12:50:06.989Z,1.13
2022-10-09T12:52:36.929Z,0.70
2022-10-09T12:55:23.572Z,0.50
2022-10-09T12:57:53.658Z,0.30
2022-10-09T13:00:23.916Z,0.82
2022-10-09T13:02:53.040Z,0.43
2022-10-09T13:05:22.108Z,0.88
2022-10-09T13:07:55.295Z,0.30
2022-10-09T13:10:27.025Z,0.40
2022-10-09T13:12:57.993Z,0.38
2022-10-09T13:15:34.648Z,0.50
2022-10-09T13:18:14.838Z,0.60
2022-10-09T13:20:43.527Z,0.30
2022-10-09T13:23:29.357Z,0.30
2022-10-09T13:26:03.164Z,0.35
2022-10-09T13:28:32.521Z,0.35
2022-10-09T13:31:09.115Z,0.30
2022-10-09T13:33:37.827Z,0.90
2022-10-09T13:36:07.032Z,0.95
2022-10-09T13:38:37.151Z,0.57
2022-10-09T13:41:06.088Z,0.30
2022-10-09T13:43:35.107Z,0.50
2022-10-09T13:46:03.891Z,0.30
2022-10-09T13:48:35.011Z,0.50
2022-10-09T13:51:03.922Z,0.30
2022-10-09T13:53:33.193Z,0.73
2022-10-09T13:56:02.003Z,0.93
2022-10-09T13:58:32.248Z,1.23
2022-10-09T14:01:04.242Z,0.60
2022-10-09T14:03:36.016Z,0.40
2022-10-09T14:06:05.105Z,0.47
2022-10-09T14:08:35.743Z,0.32
2022-10-09T14:11:07.626Z,1.23
2022-10-09T14:13:36.443Z,0.60
2022-10-09T14:16:06.535Z,0.75
2022-10-09T14:18:36.778Z,0.45
2022-10-09T14:21:14.026Z,0.65
2022-10-09T14:23:45.705Z,0.80
2022-10-09T14:26:14.741Z,0.30
2022-10-09T14:28:43.795Z,1.75
2022-10-09T14:31:13.524Z,1.08
2022-10-09T14:33:43.829Z,1.30
2022-10-09T14:36:15.386Z,2.03
2022-10-09T14:38:44.363Z,1.50
2022-10-09T14:41:15.185Z,1.08
2022-10-09T14:43:44.041Z,0.95
2022-10-09T14:46:17.225Z,0.80
2022-10-09T14:48:48.771Z,0.80
2022-10-09T14:51:19.592Z,0.90
2022-10-09T14:53:49.746Z,2.65
2022-10-09T14:56:20.575Z,1.48
2022-10-09T14:58:49.539Z,0.47
2022-10-09T15:01:19.726Z,0.65
2022-10-09T15:03:50.005Z,0.40
2022-10-09T15:06:24.002Z,0.82
2022-10-09T15:08:55.978Z,0.93
2022-10-09T15:11:25.002Z,0.40
2022-10-09T15:13:53.807Z,0.88
2022-10-09T15:16:23.511Z,1.50
2022-10-09T15:18:55.464Z,0.55
2022-10-09T15:21:26.632Z,1.17
2022-10-09T15:23:56.662Z,0.70
2022-10-09T15:26:26.249Z,0.40
2022-10-09T15:28:55.067Z,0.75
2022-10-09T15:31:26.821Z,1.25
2022-10-09T15:33:58.792Z,0.98
2022-10-09T15:36:27.780Z,0.85
2022-10-09T15:38:57.165Z,0.82
2022-10-09T15:41:27.720Z,0.88
2022-10-09T15:43:58.341Z,0.70
2022-10-09T15:46:27.478Z,0.50
2022-10-09T15:48:57.995Z,0.77
2022-10-09T15:51:28.298Z,0.82
2022-10-09T15:53:57.407Z,1.17
2022-10-09T15:56:26.395Z,0.55
2022-10-09T15:58:57.090Z,0.40
2022-10-09T16:01:26.364Z,0.52
2022-10-09T16:03:55.140Z,0.85
2022-10-09T16:06:25.185Z,0.55
2022-10-09T16:08:57.470Z,1.00
2022-10-09T16:11:27.157Z,0.40
2022-10-09T16:13:57.319Z,0.50
2022-10-09T16:16:28.555Z,0.50
2022-10-09T16:18:58.177Z,0.75
2022-10-09T16:21:30.283Z,0.80
2022-10-09T16:24:00.264Z,0.55
2022-10-09T16:26:30.618Z,1.17
2022-10-09T16:29:01.329Z,1.88
2022-10-09T16:31:34.814Z,0.77
2022-10-09T16:34:04.512Z,0.57
2022-10-09T16:36:35.057Z,1.13
2022-10-09T16:39:03.998Z,0.73
2022-10-09T16:41:32.769Z,0.77
2022-10-09T16:44:02.916Z,1.30
2022-10-09T16:49:04.857Z,0.75
2022-10-09T16:51:36.633Z,0.98
2022-10-09T16:54:06.889Z,0.70
2022-10-09T16:56:37.850Z,0.60
2022-10-09T16:59:08.403Z,1.73
2022-10-09T17:01:40.332Z,0.60
2022-10-09T17:04:09.091Z,0.65
2022-10-09T17:06:41.507Z,0.80
2022-10-09T17:09:14.078Z,0.80
2022-10-09T17:11:43.797Z,0.63
2022-10-09T17:14:13.192Z,0.85
2022-10-09T17:16:44.294Z,0.85
2022-10-09T17:19:13.015Z,1.48
2022-10-09T17:21:44.848Z,1.50
2022-10-09T17:24:16.024Z,0.80
2022-10-09T17:26:44.720Z,2.08
2022-10-09T17:29:15.019Z,1.02
2022-10-09T17:31:44.011Z,1.17
2022-10-09T17:34:14.180Z,1.10
2022-10-09T17:36:45.759Z,1.63
2022-10-09T17:39:17.784Z,1.02
2022-10-09T17:41:47.943Z,1.75
2022-10-09T17:44:17.024Z,1.48
2022-10-09T17:46:45.742Z,2.00
2022-10-09T17:49:17.632Z,1.83
2022-10-09T17:51:49.345Z,0.98
2022-10-09T17:54:19.205Z,1.00
2022-10-09T17:56:48.616Z,1.58
2022-10-09T17:59:18.837Z,1.83
2022-10-09T18:01:48.977Z,1.00
2022-10-09T18:04:19.123Z,1.25
2022-10-09T18:06:51.634Z,1.52
2022-10-09T18:09:23.126Z,0.90
2022-10-09T18:11:55.111Z,2.95
2022-10-09T18:14:28.223Z,1.45
2022-10-09T18:16:59.248Z,2.22
2022-10-09T18:19:29.192Z,1.00
2022-10-09T18:22:01.575Z,1.92
2022-10-09T18:24:31.339Z,2.65
2022-10-09T18:27:00.795Z,1.48
2022-10-09T18:29:31.853Z,2.50
2022-10-09T18:32:00.618Z,1.55
2022-10-09T18:34:29.503Z,1.20
2022-10-09T18:36:59.656Z,2.05
2022-10-09T18:39:29.086Z,2.33
2022-10-09T18:41:58.396Z,2.47
2022-10-09T18:44:27.484Z,1.42
2022-10-09T18:46:58.990Z,1.80
2022-10-09T18:49:31.952Z,1.55
2022-10-09T18:52:04.380Z,1.90
2022-10-09T18:54:33.271Z,1.95
2022-10-09T18:57:03.730Z,1.75
2022-10-09T18:59:33.173Z,1.75
2022-10-09T19:02:01.823Z,2.55
2022-10-09T19:04:30.847Z,2.53
2022-10-09T19:07:01.131Z,2.38
2022-10-09T19:09:29.976Z,2.60
2022-10-09T19:11:58.755Z,2.53
2022-10-09T19:14:27.489Z,1.42
2022-10-09T19:16:56.804Z,3.15
2022-10-09T19:19:26.754Z,1.70
2022-10-09T19:21:58.116Z,2.30
2022-10-09T19:24:31.024Z,3.67
2022-10-09T19:27:03.233Z,3.33
2022-10-09T19:29:31.957Z,2.88
2022-10-09T19:32:00.856Z,2.67
2022-10-09T19:34:31.836Z,2.53
2022-10-09T19:37:02.778Z,2.08
2022-10-09T19:39:33.749Z,2.35
2022-10-09T19:42:02.378Z,1.73
2022-10-09T19:44:31.214Z,1.35
2022-10-09T19:47:00.381Z,1.67
2022-10-09T19:49:31.738Z,2.38
2022-10-09T19:52:00.385Z,3.20
2022-10-09T19:54:29.176Z,1.73
2022-10-09T19:57:00.133Z,3.53
2022-10-09T19:59:29.962Z,2.60
2022-10-09T20:01:58.814Z,3.38
2022-10-09T20:04:27.614Z,1.95
2022-10-09T20:06:56.657Z,1.52
2022-10-09T20:09:25.488Z,2.05
2022-10-09T20:11:54.260Z,3.58
2022-10-09T20:14:25.353Z,2.83
2022-10-09T20:16:54.364Z,2.72
2022-10-09T20:19:25.149Z,1.52
2022-10-09T20:21:55.272Z,2.65
2022-10-09T20:24:24.005Z,1.60
2022-10-09T20:26:52.901Z,1.73
2022-10-09T20:29:21.627Z,2.33
2022-10-09T20:31:52.165Z,3.15
2022-10-09T20:34:20.827Z,2.40
2022-10-09T20:36:49.908Z,2.03
2022-10-09T20:39:19.715Z,2.65
2022-10-09T20:41:49.498Z,2.08
2022-10-09T20:44:18.227Z,3.88
2022-10-09T20:46:46.926Z,1.98
2022-10-09T20:49:17.342Z,1.65
2022-10-09T20:51:46.091Z,3.42
2022-10-09T20:54:18.619Z,2.55
2022-10-09T20:56:47.820Z,2.40
2022-10-09T20:59:18.171Z,3.55
2022-10-09T21:01:47.305Z,3.40
2022-10-09T21:04:17.410Z,2.53
2022-10-09T21:06:46.066Z,1.92
2022-10-09T21:09:14.890Z,2.85
2022-10-09T21:11:45.851Z,1.80
2022-10-09T21:14:14.627Z,2.22
2022-10-09T21:16:43.470Z,3.13
2022-10-09T21:19:13.022Z,1.85
2022-10-09T21:21:46.301Z,1.63
2022-10-09T21:24:17.501Z,1.48
2022-10-09T21:26:47.400Z,2.58
2022-10-09T21:29:16.476Z,1.98
2022-10-09T21:31:45.234Z,1.85
2022-10-09T21:34:14.048Z,4.15
2022-10-09T21:37:09.012Z,2.92
2022-10-09T21:39:35.184Z,1.75
2022-10-09T21:42:03.745Z,2.20
2022-10-09T21:44:32.559Z,2.92
2022-10-09T21:47:01.264Z,1.80
2022-10-09T21:49:30.815Z,3.85
2022-10-09T21:52:00.804Z,2.35
2022-10-09T21:54:29.680Z,2.38
2022-10-09T21:56:58.484Z,2.35
2022-10-09T21:59:27.355Z,2.17
2022-10-09T22:01:56.133Z,2.45
2022-10-09T22:04:24.847Z,2.08
2022-10-09T22:06:53.696Z,2.03
2022-10-09T22:09:23.765Z,1.58
2022-10-09T22:11:52.770Z,1.75
2022-10-09T22:14:21.471Z,4.22
2022-10-09T22:16:50.218Z,2.58
2022-10-09T22:19:19.838Z,1.60
2022-10-09T22:21:49.777Z,1.55
2022-10-09T22:24:18.518Z,2.78
2022-10-09T22:26:48.702Z,3.10
2022-10-09T22:29:17.598Z,1.70
2022-10-09T22:31:46.421Z,3.20
2022-10-09T22:34:15.066Z,2.15
2022-10-09T22:36:43.852Z,3.33
2022-10-09T22:39:13.432Z,1.77
2022-10-09T22:41:42.180Z,2.40
2022-10-09T22:44:13.442Z,2.42
2022-10-09T22:46:43.961Z,2.47
2022-10-09T22:49:15.454Z,3.15
2022-10-09T22:51:44.456Z,1.20
2022-10-09T22:54:14.216Z,2.17
2022-10-09T22:56:46.971Z,2.42
2022-10-09T22:59:19.138Z,3.33
2022-10-09T23:01:51.536Z,2.70
2022-10-09T23:04:21.804Z,2.30
2022-10-09T23:06:52.742Z,2.03
2022-10-09T23:09:22.874Z,3.20
2022-10-09T23:11:52.161Z,2.85
2022-10-09T23:14:22.337Z,1.75
2022-10-09T23:16:51.075Z,2.78
2022-10-09T23:19:19.904Z,1.90
2022-10-09T23:21:48.761Z,2.63
2022-10-09T23:24:18.118Z,1.98
2022-10-09T23:26:51.053Z,2.35
2022-10-09T23:29:24.294Z,2.60
2022-10-09T23:31:54.214Z,2.35
2022-10-09T23:34:23.084Z,2.58
2022-10-09T23:36:51.904Z,2.47
2022-10-09T23:39:20.868Z,2.97
2022-10-09T23:41:49.715Z,1.73
2022-10-09T23:44:22.006Z,3.00
2022-10-09T23:46:52.506Z,3.35
2022-10-09T23:49:21.289Z,1.77
2022-10-09T23:51:50.003Z,2.85
2022-10-09T23:54:18.727Z,4.18
2022-10-09T23:56:47.419Z,2.25
2022-10-09T23:59:16.169Z,2.28
